createdAt,value
2019-04-11T00:00:59.666Z,1021.54
2019-04-11T00:01:59.166Z,1021.50
2019-04-11T00:02:59.133Z,1021.52
2019-04-11T00:03:59.846Z,1021.54
2019-04-11T00:04:59.072Z,1021.54
2019-04-11T00:05:59.265Z,1021.56
2019-04-11T00:07:00.175Z,1021.53
2019-04-11T00:07:59.730Z,1021.51
2019-04-11T00:08:58.948Z,1021.54
2019-04-11T00:09:58.921Z,1021.56
2019-04-11T00:10:59.617Z,1021.54
2019-04-11T00:11:59.777Z,1021.54
2019-04-11T00:12:59.121Z,1021.58
2019-04-11T00:13:59.790Z,1021.54
2019-04-11T00:14:58.759Z,1021.55
2019-04-11T00:15:59.189Z,1021.60
2019-04-11T00:16:58.697Z,1021.58
2019-04-11T00:17:58.665Z,1021.57
2019-04-11T00:18:58.896Z,1021.52
2019-04-11T00:19:58.603Z,1021.59
2019-04-11T00:20:58.570Z,1021.61
2019-04-11T00:21:59.439Z,1021.55
2019-04-11T00:22:59.649Z,1021.55
2019-04-11T00:23:58.665Z,1021.57
2019-04-11T00:24:58.930Z,1021.54
2019-04-11T00:25:58.413Z,1021.60
2019-04-11T00:26:58.380Z,1021.61
2019-04-11T00:27:59.376Z,1021.61
2019-04-11T00:28:58.393Z,1021.59
2019-04-11T00:29:58.291Z,1021.60
2019-04-11T00:30:58.805Z,1021.62
2019-04-11T00:31:58.228Z,1021.64
2019-04-11T00:32:58.196Z,1021.63
2019-04-11T00:33:58.446Z,1021.66
2019-04-11T00:34:58.135Z,1021.65
2019-04-11T00:35:58.102Z,1021.65
2019-04-11T00:36:58.897Z,1021.66
2019-04-11T00:37:59.243Z,1021.66
2019-04-11T00:38:58.007Z,1021.64
2019-04-11T00:39:57.975Z,1021.65
2019-04-11T00:40:57.944Z,1021.69
2019-04-11T00:41:58.637Z,1021.65
2019-04-11T00:42:58.885Z,1021.67
2019-04-11T00:43:58.703Z,1021.67
2019-04-11T00:44:59.016Z,1021.67
2019-04-11T00:45:58.169Z,1021.68
2019-04-11T00:46:58.507Z,1021.65
2019-04-11T00:47:57.725Z,1021.69
2019-04-11T00:48:57.769Z,1021.67
2019-04-11T00:49:58.803Z,1021.67
2019-04-11T00:50:57.628Z,1021.67
2019-04-11T00:51:58.316Z,1021.68
2019-04-11T00:52:58.013Z,1021.71
2019-04-11T00:53:58.318Z,1021.68
2019-04-11T00:54:57.505Z,1021.67
2019-04-11T00:55:57.472Z,1021.71
2019-04-11T00:56:57.443Z,1021.71
2019-04-11T00:57:57.409Z,1021.71
2019-04-11T00:58:58.308Z,1021.68
2019-04-11T00:59:58.284Z,1021.70
2019-04-11T01:00:57.575Z,1021.69
2019-04-11T01:01:57.286Z,1021.71
2019-04-11T01:02:57.941Z,1021.71
2019-04-11T01:03:57.221Z,1021.70
2019-04-11T01:04:57.195Z,1021.72
2019-04-11T01:05:58.273Z,1021.71
2019-04-11T01:06:57.136Z,1021.74
2019-04-11T01:07:57.742Z,1021.73
2019-04-11T01:08:57.067Z,1021.74
2019-04-11T01:09:57.033Z,1021.73
2019-04-11T01:10:57.393Z,1021.75
2019-04-11T01:11:56.981Z,1021.76
2019-04-11T01:12:56.942Z,1021.79
2019-04-11T01:13:57.335Z,1021.81
2019-04-11T01:14:57.375Z,1021.79
2019-04-11T01:15:56.849Z,1021.82
2019-04-11T01:16:57.010Z,1021.79
2019-04-11T01:17:57.923Z,1021.83
2019-04-11T01:18:56.754Z,1021.80
2019-04-11T01:19:57.355Z,1021.84
2019-04-11T01:20:56.710Z,1021.87
2019-04-11T01:21:57.865Z,1021.88
2019-04-11T01:22:56.630Z,1021.89
2019-04-11T01:23:57.516Z,1021.86
2019-04-11T01:24:57.780Z,1021.91
2019-04-11T01:25:56.995Z,1021.89
2019-04-11T01:26:57.366Z,1021.91
2019-04-11T01:27:56.486Z,1021.92
2019-04-11T01:28:56.438Z,1021.92
2019-04-11T01:29:56.408Z,1021.91
2019-04-11T01:30:57.533Z,1021.88
2019-04-11T01:31:56.344Z,1021.90
2019-04-11T01:32:56.952Z,1021.92
2019-04-11T01:33:56.284Z,1021.90
2019-04-11T01:34:57.152Z,1021.89
2019-04-11T01:35:57.413Z,1021.88
2019-04-11T01:36:56.188Z,1021.86
2019-04-11T01:37:56.169Z,1021.88
2019-04-11T01:38:56.918Z,1021.87
2019-04-11T01:39:57.200Z,1021.88
2019-04-11T01:40:56.187Z,1021.89
2019-04-11T01:41:56.036Z,1021.89
2019-04-11T01:42:55.999Z,1021.93
2019-04-11T01:44:00.940Z,1021.92
2019-04-11T01:44:56.924Z,1021.95
2019-04-11T01:45:56.023Z,1021.96
2019-04-11T01:46:56.305Z,1021.98
2019-04-11T01:47:55.843Z,1021.97
2019-04-11T01:48:55.810Z,1021.97
2019-04-11T01:49:56.614Z,1021.95
2019-04-11T01:50:56.950Z,1021.95
2019-04-11T01:51:56.054Z,1021.96
2019-04-11T01:52:55.685Z,1021.99
2019-04-11T01:53:55.652Z,1021.96
2019-04-11T01:54:56.400Z,1022.00
2019-04-11T01:55:56.800Z,1021.99
2019-04-11T01:56:55.807Z,1022.00
2019-04-11T01:57:55.523Z,1022.04
2019-04-11T01:58:55.492Z,1022.00
2019-04-11T01:59:55.625Z,1022.01
2019-04-11T02:00:56.658Z,1022.02
2019-04-11T02:01:55.397Z,1022.05
2019-04-11T02:02:55.367Z,1022.05
2019-04-11T02:03:55.401Z,1022.02
2019-04-11T02:04:56.419Z,1022.05
2019-04-11T02:05:55.271Z,1022.06
2019-04-11T02:06:56.239Z,1022.06
2019-04-11T02:07:55.350Z,1022.04
2019-04-11T02:08:55.628Z,1022.00
2019-04-11T02:09:55.142Z,1022.06
2019-04-11T02:10:55.111Z,1022.03
2019-04-11T02:11:56.157Z,1022.01
2019-04-11T02:12:55.305Z,1022.01
2019-04-11T02:14:05.116Z,1022.02
2019-04-11T02:14:55.575Z,1021.99
2019-04-11T02:15:56.838Z,1022.03
2019-04-11T02:16:54.923Z,1022.03
2019-04-11T02:17:55.072Z,1022.06
2019-04-11T02:18:56.067Z,1022.08
2019-04-11T02:19:54.827Z,1022.09
2019-04-11T02:20:55.731Z,1022.11
2019-04-11T02:21:54.893Z,1022.17
2019-04-11T02:22:55.014Z,1022.18
2019-04-11T02:23:55.277Z,1022.21
2019-04-11T02:24:54.668Z,1022.23
2019-04-11T02:25:54.636Z,1022.26
2019-04-11T02:26:54.652Z,1022.23
2019-04-11T02:27:54.577Z,1022.24
2019-04-11T02:28:55.212Z,1022.23
2019-04-11T02:29:55.149Z,1022.25
2019-04-11T02:30:56.262Z,1022.21
2019-04-11T02:31:54.962Z,1022.20
2019-04-11T02:32:55.959Z,1022.27
2019-04-11T02:33:55.296Z,1022.25
2019-04-11T02:34:57.130Z,1022.23
2019-04-11T02:35:54.560Z,1022.25
2019-04-11T02:36:56.417Z,1022.26
2019-04-11T02:37:54.897Z,1022.26
2019-04-11T02:38:57.567Z,1022.28
2019-04-11T02:39:55.954Z,1022.30
2019-04-11T02:40:55.062Z,1022.31
2019-04-11T02:41:54.951Z,1022.33
2019-04-11T02:42:54.911Z,1022.29
2019-04-11T02:43:54.997Z,1022.36
2019-04-11T02:45:09.253Z,1022.37
2019-04-11T02:46:09.021Z,1022.31
2019-04-11T02:47:01.750Z,1022.30
2019-04-11T02:47:56.331Z,1022.27
2019-04-11T02:48:54.529Z,1022.28
2019-04-11T02:49:55.044Z,1022.32
2019-04-11T02:50:54.279Z,1022.31
2019-04-11T02:51:55.733Z,1022.31
2019-04-11T02:52:54.033Z,1022.33
2019-04-11T02:53:54.867Z,1022.39
2019-04-11T02:54:54.526Z,1022.38
2019-04-11T02:55:54.262Z,1022.35
2019-04-11T02:56:54.790Z,1022.38
2019-04-11T02:57:54.315Z,1022.40
2019-04-11T02:58:54.573Z,1022.37
2019-04-11T02:59:54.295Z,1022.40
2019-04-11T03:00:55.405Z,1022.41
2019-04-11T03:01:53.503Z,1022.39
2019-04-11T03:02:53.469Z,1022.38
2019-04-11T03:03:54.083Z,1022.40
2019-04-11T03:04:55.390Z,1022.38
2019-04-11T03:05:53.780Z,1022.37
2019-04-11T03:06:53.358Z,1022.35
2019-04-11T03:07:54.067Z,1022.37
2019-04-11T03:08:54.889Z,1022.38
2019-04-11T03:09:53.752Z,1022.39
2019-04-11T03:10:53.775Z,1022.38
2019-04-11T03:11:54.703Z,1022.35
2019-04-11T03:12:54.457Z,1022.34
2019-04-11T03:13:54.677Z,1022.39
2019-04-11T03:15:12.628Z,1022.35
2019-04-11T03:16:05.314Z,1022.36
2019-04-11T03:17:02.510Z,1022.40
2019-04-11T03:17:57.658Z,1022.40
2019-04-11T03:19:10.428Z,1022.42
2019-04-11T03:20:04.395Z,1022.47
2019-04-11T03:20:56.926Z,1022.43
2019-04-11T03:21:54.587Z,1022.41
2019-04-11T03:22:57.340Z,1022.54
2019-04-11T03:23:52.803Z,1022.47
2019-04-11T03:24:53.484Z,1022.48
2019-04-11T03:25:54.217Z,1022.51
2019-04-11T03:26:54.964Z,1022.50
2019-04-11T03:27:54.033Z,1022.47
2019-04-11T03:28:56.536Z,1022.51
2019-04-11T03:29:53.848Z,1022.54
2019-04-11T03:31:17.964Z,1022.50
2019-04-11T03:35:37.739Z,1022.59
2019-04-11T03:36:59.932Z,1022.56
2019-04-11T03:37:37.312Z,1022.60
2019-04-11T03:38:15.293Z,1022.58
2019-04-11T03:39:11.926Z,1022.60
2019-04-11T03:40:13.100Z,1022.60
2019-04-11T03:41:12.138Z,1022.61
2019-04-11T03:42:11.118Z,1022.64
2019-04-11T03:43:06.381Z,1022.64
2019-04-11T03:44:00.344Z,1022.64
2019-04-11T03:45:15.310Z,1022.66
2019-04-11T03:46:11.240Z,1022.66
2019-04-11T03:47:10.149Z,1022.69
2019-04-11T03:48:06.087Z,1022.68
2019-04-11T03:49:01.216Z,1022.66
2019-04-11T03:50:00.312Z,1022.67
2019-04-11T03:50:54.575Z,1022.69
2019-04-11T03:51:52.991Z,1022.68
2019-04-11T03:52:53.739Z,1022.65
2019-04-11T03:53:53.431Z,1022.64
2019-04-11T03:54:51.815Z,1022.66
2019-04-11T03:55:51.780Z,1022.61
2019-04-11T03:56:53.454Z,1022.60
2019-04-11T03:57:53.644Z,1022.60
2019-04-11T03:58:53.366Z,1022.66
2019-04-11T03:59:52.058Z,1022.64
2019-04-11T04:00:53.543Z,1022.67
2019-04-11T04:01:51.603Z,1022.69
2019-04-11T04:02:52.557Z,1022.68
2019-04-11T04:03:53.435Z,1022.70
2019-04-11T04:04:53.494Z,1022.71
2019-04-11T04:05:52.861Z,1022.72
2019-04-11T04:06:52.695Z,1022.76
2019-04-11T04:07:52.466Z,1022.79
2019-04-11T04:08:53.025Z,1022.78
2019-04-11T04:09:53.621Z,1022.80
2019-04-11T04:10:51.855Z,1022.79
2019-04-11T04:11:51.399Z,1022.81
2019-04-11T04:12:51.831Z,1022.85
2019-04-11T04:13:51.772Z,1022.82
2019-04-11T04:14:51.619Z,1022.82
2019-04-11T04:15:59.977Z,1022.81
2019-04-11T04:16:54.838Z,1022.83
2019-04-11T04:17:52.047Z,1022.77
2019-04-11T04:18:51.749Z,1022.81
2019-04-11T04:19:51.808Z,1022.82
2019-04-11T04:20:51.228Z,1022.83
2019-04-11T04:21:51.162Z,1022.83
2019-04-11T04:22:52.419Z,1022.86
2019-04-11T04:23:51.902Z,1022.84
2019-04-11T04:24:52.892Z,1022.87
2019-04-11T04:25:51.676Z,1022.90
2019-04-11T04:26:52.450Z,1022.90
2019-04-11T04:27:51.300Z,1022.91
2019-04-11T04:28:51.308Z,1022.88
2019-04-11T04:29:55.004Z,1022.95
2019-04-11T04:30:51.719Z,1022.96
2019-04-11T04:31:50.921Z,1022.96
2019-04-11T04:32:52.082Z,1022.98
2019-04-11T04:33:51.409Z,1022.98
2019-04-11T04:34:51.189Z,1022.97
2019-04-11T04:35:51.759Z,1022.97
2019-04-11T04:36:51.500Z,1022.99
2019-04-11T04:37:51.719Z,1023.01
2019-04-11T04:38:50.406Z,1023.02
2019-04-11T04:40:12.122Z,1023.00
2019-04-11T04:41:05.715Z,1023.05
2019-04-11T04:41:58.999Z,1023.06
2019-04-11T04:42:53.289Z,1023.05
2019-04-11T04:43:50.670Z,1023.08
2019-04-11T04:44:50.982Z,1023.07
2019-04-11T04:46:08.746Z,1023.10
2019-04-11T04:47:00.134Z,1023.16
2019-04-11T04:47:56.886Z,1023.12
2019-04-11T04:48:51.500Z,1023.13
2019-04-11T04:49:50.055Z,1023.15
2019-04-11T04:50:52.336Z,1023.15
2019-04-11T04:51:51.135Z,1023.19
2019-04-11T04:52:51.597Z,1023.21
2019-04-11T04:53:50.313Z,1023.16
2019-04-11T04:54:49.934Z,1023.21
2019-04-11T04:55:50.671Z,1023.15
2019-04-11T04:56:50.309Z,1023.22
2019-04-11T04:57:51.083Z,1023.23
2019-04-11T04:58:50.798Z,1023.23
2019-04-11T04:59:49.853Z,1023.22
2019-04-11T05:00:51.970Z,1023.26
2019-04-11T05:01:50.868Z,1023.26
2019-04-11T05:02:50.336Z,1023.27
2019-04-11T05:03:50.945Z,1023.26
2019-04-11T05:04:49.671Z,1023.28
2019-04-11T05:05:51.068Z,1023.26
2019-04-11T05:06:50.830Z,1023.28
2019-04-11T05:07:49.786Z,1023.33
2019-04-11T05:08:49.459Z,1023.30
2019-04-11T05:09:50.367Z,1023.29
2019-04-11T05:10:49.379Z,1023.30
2019-04-11T05:11:50.690Z,1023.27
2019-04-11T05:12:49.315Z,1023.29
2019-04-11T05:13:51.766Z,1023.33
2019-04-11T05:14:49.863Z,1023.33
2019-04-11T05:16:02.403Z,1023.32
2019-04-11T05:16:50.424Z,1023.37
2019-04-11T05:17:49.237Z,1023.36
2019-04-11T05:18:49.123Z,1023.38
2019-04-11T05:19:49.091Z,1023.42
2019-04-11T05:20:49.069Z,1023.42
2019-04-11T05:21:49.877Z,1023.45
2019-04-11T05:22:49.276Z,1023.48
2019-04-11T05:23:50.014Z,1023.48
2019-04-11T05:24:48.930Z,1023.46
2019-04-11T05:25:48.898Z,1023.50
2019-04-11T05:26:50.215Z,1023.51
2019-04-11T05:27:49.667Z,1023.53
2019-04-11T05:28:48.892Z,1023.54
2019-04-11T05:29:49.470Z,1023.50
2019-04-11T05:30:49.075Z,1023.56
2019-04-11T05:31:49.193Z,1023.57
2019-04-11T05:32:49.316Z,1023.55
2019-04-11T05:33:49.721Z,1023.61
2019-04-11T05:34:49.043Z,1023.60
2019-04-11T05:35:48.581Z,1023.62
2019-04-11T05:36:49.820Z,1023.60
2019-04-11T05:37:48.517Z,1023.62
2019-04-11T05:38:48.685Z,1023.62
2019-04-11T05:39:48.454Z,1023.62
2019-04-11T05:40:48.428Z,1023.69
2019-04-11T05:41:49.817Z,1023.69
2019-04-11T05:42:53.400Z,1023.68
2019-04-11T05:43:49.306Z,1023.73
2019-04-11T05:44:49.677Z,1023.74
2019-04-11T05:45:52.228Z,1023.70
2019-04-11T05:46:55.795Z,1023.67
2019-04-11T05:47:51.664Z,1023.69
2019-04-11T05:48:48.180Z,1023.66
2019-04-11T05:49:48.149Z,1023.67
2019-04-11T05:50:51.078Z,1023.67
2019-04-11T05:51:49.307Z,1023.73
2019-04-11T05:52:48.290Z,1023.69
2019-04-11T05:53:50.038Z,1023.63
2019-04-11T05:54:49.759Z,1023.70
2019-04-11T05:55:47.988Z,1023.69
2019-04-11T05:56:52.041Z,1023.71
2019-04-11T05:57:47.928Z,1023.70
2019-04-11T05:58:47.902Z,1023.71
2019-04-11T05:59:50.946Z,1023.72
2019-04-11T06:00:48.931Z,1023.70
2019-04-11T06:01:48.789Z,1023.70
2019-04-11T06:02:49.145Z,1023.70
2019-04-11T06:03:49.218Z,1023.72
2019-04-11T06:04:51.934Z,1023.73
2019-04-11T06:05:47.704Z,1023.72
2019-04-11T06:06:47.677Z,1023.72
2019-04-11T06:07:50.182Z,1023.74
2019-04-11T06:08:48.249Z,1023.76
2019-04-11T06:09:48.206Z,1023.76
2019-04-11T06:10:48.409Z,1023.78
2019-04-11T06:11:48.243Z,1023.80
2019-04-11T06:12:47.517Z,1023.81
2019-04-11T06:13:47.491Z,1023.84
2019-04-11T06:14:47.467Z,1023.82
2019-04-11T06:15:47.438Z,1023.86
2019-04-11T06:16:52.014Z,1023.85
2019-04-11T06:17:48.198Z,1023.89
2019-04-11T06:18:48.127Z,1023.89
2019-04-11T06:19:48.004Z,1023.90
2019-04-11T06:20:47.310Z,1023.91
2019-04-11T06:21:48.402Z,1023.89
2019-04-11T06:22:47.705Z,1023.94
2019-04-11T06:23:47.757Z,1023.99
2019-04-11T06:24:48.204Z,1023.94
2019-04-11T06:25:47.228Z,1023.95
2019-04-11T06:26:47.153Z,1023.96
2019-04-11T06:27:47.415Z,1024.01
2019-04-11T06:28:47.338Z,1023.98
2019-04-11T06:29:47.368Z,1024.01
2019-04-11T06:30:47.054Z,1024.02
2019-04-11T06:31:47.501Z,1024.05
2019-04-11T06:32:47.823Z,1024.01
2019-04-11T06:33:47.016Z,1024.00
2019-04-11T06:34:46.993Z,1024.04
2019-04-11T06:35:46.923Z,1024.02
2019-04-11T06:36:48.184Z,1024.06
2019-04-11T06:37:46.872Z,1024.07
2019-04-11T06:38:47.216Z,1024.08
2019-04-11T06:39:47.375Z,1024.08
2019-04-11T06:40:46.796Z,1024.16
2019-04-11T06:41:46.771Z,1024.17
2019-04-11T06:42:47.669Z,1024.13
2019-04-11T06:43:47.868Z,1024.16
2019-04-11T06:44:46.696Z,1024.14
2019-04-11T06:45:46.667Z,1024.18
2019-04-11T06:46:52.372Z,1024.16
2019-04-11T06:47:47.179Z,1024.20
2019-04-11T06:48:47.676Z,1024.17
2019-04-11T06:49:46.764Z,1024.17
2019-04-11T06:50:47.192Z,1024.21
2019-04-11T06:51:46.515Z,1024.17
2019-04-11T06:52:46.500Z,1024.19
2019-04-11T06:53:46.466Z,1024.20
2019-04-11T06:54:47.479Z,1024.27
2019-04-11T06:55:46.834Z,1024.28
2019-04-11T06:56:47.484Z,1024.26
2019-04-11T06:57:46.365Z,1024.29
2019-04-11T06:58:46.342Z,1024.24
2019-04-11T06:59:46.317Z,1024.29
2019-04-11T07:00:47.445Z,1024.27
2019-04-11T07:01:47.496Z,1024.25
2019-04-11T07:02:46.615Z,1024.27
2019-04-11T07:03:46.925Z,1024.15
2019-04-11T07:04:46.385Z,1024.25
2019-04-11T07:05:46.852Z,1024.19
2019-04-11T07:06:46.141Z,1024.19
2019-04-11T07:07:46.178Z,1024.19
2019-04-11T07:08:46.938Z,1024.22
2019-04-11T07:09:47.037Z,1024.23
2019-04-11T07:10:46.746Z,1024.20
2019-04-11T07:11:46.017Z,1024.22
2019-04-11T07:12:47.066Z,1024.22
2019-04-11T07:13:45.969Z,1024.20
2019-04-11T07:14:45.945Z,1024.23
2019-04-11T07:15:46.431Z,1024.25
2019-04-11T07:16:46.828Z,1024.27
2019-04-11T07:17:45.995Z,1024.25
2019-04-11T07:18:46.492Z,1024.28
2019-04-11T07:19:45.920Z,1024.31
2019-04-11T07:20:45.897Z,1024.24
2019-04-11T07:21:46.165Z,1024.33
2019-04-11T07:22:46.636Z,1024.33
2019-04-11T07:23:46.912Z,1024.28
2019-04-11T07:24:45.707Z,1024.24
2019-04-11T07:25:45.681Z,1024.26
2019-04-11T07:26:45.902Z,1024.27
2019-04-11T07:27:45.636Z,1024.27
2019-04-11T07:28:45.908Z,1024.26
2019-04-11T07:29:46.467Z,1024.25
2019-04-11T07:30:45.562Z,1024.24
2019-04-11T07:31:46.260Z,1024.26
2019-04-11T07:32:45.516Z,1024.26
2019-04-11T07:33:45.505Z,1024.30
2019-04-11T07:34:45.767Z,1024.31
2019-04-11T07:35:45.448Z,1024.31
2019-04-11T07:36:46.233Z,1024.30
2019-04-11T07:37:47.128Z,1024.29
2019-04-11T07:38:46.460Z,1024.30
2019-04-11T07:39:45.350Z,1024.33
2019-04-11T07:40:45.487Z,1024.31
2019-04-11T07:41:45.578Z,1024.28
2019-04-11T07:42:46.718Z,1024.30
2019-04-11T07:43:45.255Z,1024.33
2019-04-11T07:44:45.254Z,1024.33
2019-04-11T07:45:45.212Z,1024.28
2019-04-11T07:46:45.184Z,1024.28
2019-04-11T07:47:46.074Z,1024.29
2019-04-11T07:48:45.137Z,1024.26
2019-04-11T07:49:45.315Z,1024.24
2019-04-11T07:50:45.093Z,1024.30
2019-04-11T07:51:45.119Z,1024.26
2019-04-11T07:52:45.044Z,1024.27
2019-04-11T07:53:45.944Z,1024.25
2019-04-11T07:54:45.614Z,1024.24
2019-04-11T07:55:44.972Z,1024.28
2019-04-11T07:56:44.950Z,1024.27
2019-04-11T07:57:44.930Z,1024.31
2019-04-11T07:58:45.745Z,1024.31
2019-04-11T07:59:44.879Z,1024.30
2019-04-11T08:00:49.400Z,1024.32
2019-04-11T08:01:44.834Z,1024.36
2019-04-11T08:02:45.580Z,1024.36
2019-04-11T08:03:44.791Z,1024.36
2019-04-11T08:04:45.172Z,1024.36
2019-04-11T08:05:44.742Z,1024.42
2019-04-11T08:06:45.678Z,1024.38
2019-04-11T08:07:44.916Z,1024.35
2019-04-11T08:08:44.674Z,1024.41
2019-04-11T08:09:44.652Z,1024.39
2019-04-11T08:10:45.734Z,1024.40
2019-04-11T08:11:44.607Z,1024.47
2019-04-11T08:12:45.581Z,1024.37
2019-04-11T08:13:45.009Z,1024.41
2019-04-11T08:14:44.628Z,1024.40
2019-04-11T08:15:44.513Z,1024.39
2019-04-11T08:16:44.913Z,1024.43
2019-04-11T08:17:44.613Z,1024.41
2019-04-11T08:18:45.339Z,1024.38
2019-04-11T08:19:44.423Z,1024.39
2019-04-11T08:20:45.631Z,1024.40
2019-04-11T08:21:44.376Z,1024.38
2019-04-11T08:22:45.480Z,1024.36
2019-04-11T08:23:44.328Z,1024.45
2019-04-11T08:24:44.908Z,1024.42
2019-04-11T08:25:45.243Z,1024.44
2019-04-11T08:26:44.428Z,1024.43
2019-04-11T08:27:54.692Z,1024.48
2019-04-11T08:28:45.498Z,1024.49
2019-04-11T08:29:44.387Z,1024.48
2019-04-11T08:30:44.159Z,1024.44
2019-04-11T08:31:44.519Z,1024.44
2019-04-11T08:32:44.299Z,1024.48
2019-04-11T08:33:44.082Z,1024.48
2019-04-11T08:34:44.059Z,1024.49
2019-04-11T08:35:44.110Z,1024.46
2019-04-11T08:36:44.226Z,1024.47
2019-04-11T08:37:43.983Z,1024.41
2019-04-11T08:38:44.739Z,1024.44
2019-04-11T08:39:44.999Z,1024.46
2019-04-11T08:40:45.082Z,1024.50
2019-04-11T08:41:44.087Z,1024.47
2019-04-11T08:42:43.856Z,1024.47
2019-04-11T08:43:43.832Z,1024.48
2019-04-11T08:44:43.878Z,1024.51
2019-04-11T08:45:44.451Z,1024.51
2019-04-11T08:46:44.750Z,1024.49
2019-04-11T08:47:47.586Z,1024.43
2019-04-11T08:48:44.122Z,1024.51
2019-04-11T08:49:43.741Z,1024.51
2019-04-11T08:50:44.725Z,1024.50
2019-04-11T08:51:43.627Z,1024.47
2019-04-11T08:52:44.401Z,1024.50
2019-04-11T08:53:44.715Z,1024.54
2019-04-11T08:54:43.838Z,1024.51
2019-04-11T08:55:51.969Z,1024.53
2019-04-11T08:56:43.498Z,1024.50
2019-04-11T08:57:44.500Z,1024.53
2019-04-11T08:58:43.446Z,1024.52
2019-04-11T08:59:44.054Z,1024.56
2019-04-11T09:00:43.393Z,1024.54
2019-04-11T09:01:44.313Z,1024.55
2019-04-11T09:02:43.340Z,1024.55
2019-04-11T09:03:44.078Z,1024.52
2019-04-11T09:04:43.297Z,1024.52
2019-04-11T09:05:43.260Z,1024.48
2019-04-11T09:06:43.238Z,1024.52
2019-04-11T09:07:43.545Z,1024.50
2019-04-11T09:08:43.178Z,1024.49
2019-04-11T09:09:43.255Z,1024.52
2019-04-11T09:10:44.073Z,1024.45
2019-04-11T09:11:43.200Z,1024.50
2019-04-11T09:12:43.073Z,1024.46
2019-04-11T09:13:44.019Z,1024.48
2019-04-11T09:14:44.306Z,1024.45
2019-04-11T09:15:43.268Z,1024.43
2019-04-11T09:16:42.966Z,1024.42
2019-04-11T09:17:55.137Z,1024.45
2019-04-11T09:18:43.953Z,1024.43
2019-04-11T09:19:43.134Z,1024.43
2019-04-11T09:20:43.422Z,1024.41
2019-04-11T09:21:42.834Z,1024.43
2019-04-11T09:22:42.814Z,1024.41
2019-04-11T09:23:43.903Z,1024.41
2019-04-11T09:24:43.177Z,1024.43
2019-04-11T09:25:43.498Z,1024.45
2019-04-11T09:26:42.702Z,1024.46
2019-04-11T09:27:42.696Z,1024.41
2019-04-11T09:28:43.932Z,1024.45
2019-04-11T09:29:42.620Z,1024.45
2019-04-11T09:30:43.111Z,1024.44
2019-04-11T09:31:43.976Z,1024.41
2019-04-11T09:32:42.549Z,1024.46
2019-04-11T09:33:42.516Z,1024.43
2019-04-11T09:34:42.489Z,1024.43
2019-04-11T09:35:43.352Z,1024.40
2019-04-11T09:36:42.436Z,1024.38
2019-04-11T09:37:44.241Z,1024.38
2019-04-11T09:38:42.406Z,1024.39
2019-04-11T09:39:43.411Z,1024.40
2019-04-11T09:40:42.328Z,1024.40
2019-04-11T09:41:42.733Z,1024.43
2019-04-11T09:42:43.077Z,1024.35
2019-04-11T09:43:42.310Z,1024.38
2019-04-11T09:44:42.225Z,1024.42
2019-04-11T09:45:42.193Z,1024.38
2019-04-11T09:46:42.814Z,1024.39
2019-04-11T09:47:42.140Z,1024.41
2019-04-11T09:48:42.393Z,1024.41
2019-04-11T09:49:42.961Z,1024.43
2019-04-11T09:50:42.729Z,1024.42
2019-04-11T09:51:42.306Z,1024.43
2019-04-11T09:52:42.039Z,1024.44
2019-04-11T09:53:42.947Z,1024.44
2019-04-11T09:54:42.097Z,1024.39
2019-04-11T09:55:41.927Z,1024.37
2019-04-11T09:56:42.968Z,1024.39
2019-04-11T09:57:42.043Z,1024.38
2019-04-11T09:58:42.156Z,1024.38
2019-04-11T09:59:41.825Z,1024.37
2019-04-11T10:00:43.015Z,1024.39
2019-04-11T10:01:42.931Z,1024.35
2019-04-11T10:02:41.946Z,1024.32
2019-04-11T10:03:42.951Z,1024.31
2019-04-11T10:04:41.809Z,1024.32
2019-04-11T10:05:42.638Z,1024.31
2019-04-11T10:06:41.636Z,1024.36
2019-04-11T10:07:41.957Z,1024.31
2019-04-11T10:08:41.786Z,1024.26
2019-04-11T10:09:41.562Z,1024.30
2019-04-11T10:10:43.417Z,1024.31
2019-04-11T10:11:42.027Z,1024.34
2019-04-11T10:12:42.561Z,1024.34
2019-04-11T10:13:42.707Z,1024.33
2019-04-11T10:14:41.814Z,1024.36
2019-04-11T10:15:41.411Z,1024.34
2019-04-11T10:16:42.286Z,1024.34
2019-04-11T10:17:42.494Z,1024.38
2019-04-11T10:18:42.744Z,1024.40
2019-04-11T10:19:42.316Z,1024.36
2019-04-11T10:20:42.523Z,1024.37
2019-04-11T10:21:41.727Z,1024.39
2019-04-11T10:22:41.233Z,1024.39
2019-04-11T10:23:41.206Z,1024.37
2019-04-11T10:24:41.179Z,1024.36
2019-04-11T10:25:41.155Z,1024.34
2019-04-11T10:26:42.334Z,1024.35
2019-04-11T10:27:41.105Z,1024.39
2019-04-11T10:28:41.764Z,1024.36
2019-04-11T10:29:41.797Z,1024.37
2019-04-11T10:30:41.993Z,1024.41
2019-04-11T10:31:42.228Z,1024.37
2019-04-11T10:32:41.392Z,1024.35
2019-04-11T10:33:41.426Z,1024.34
2019-04-11T10:34:41.741Z,1024.37
2019-04-11T10:35:40.896Z,1024.34
2019-04-11T10:36:41.046Z,1024.35
2019-04-11T10:37:42.099Z,1024.31
2019-04-11T10:38:40.819Z,1024.35
2019-04-11T10:39:41.694Z,1024.30
2019-04-11T10:40:41.925Z,1024.32
2019-04-11T10:41:41.963Z,1024.33
2019-04-11T10:42:40.720Z,1024.39
2019-04-11T10:43:40.690Z,1024.39
2019-04-11T10:44:40.665Z,1024.34
2019-04-11T10:45:40.640Z,1024.37
2019-04-11T10:46:41.686Z,1024.36
2019-04-11T10:47:40.870Z,1024.40
2019-04-11T10:48:44.818Z,1024.43
2019-04-11T10:49:40.536Z,1024.43
2019-04-11T10:50:40.514Z,1024.43
2019-04-11T10:51:40.826Z,1024.38
2019-04-11T10:52:40.462Z,1024.39
2019-04-11T10:53:41.528Z,1024.41
2019-04-11T10:54:40.814Z,1024.42
2019-04-11T10:55:40.383Z,1024.48
2019-04-11T10:56:41.177Z,1024.48
2019-04-11T10:57:40.426Z,1024.49
2019-04-11T10:58:40.708Z,1024.48
2019-04-11T10:59:40.796Z,1024.48
2019-04-11T11:00:40.252Z,1024.46
2019-04-11T11:01:40.249Z,1024.47
2019-04-11T11:02:40.199Z,1024.47
2019-04-11T11:03:40.174Z,1024.46
2019-04-11T11:04:41.010Z,1024.46
2019-04-11T11:05:40.208Z,1024.45
2019-04-11T11:06:40.093Z,1024.41
2019-04-11T11:07:40.574Z,1024.44
2019-04-11T11:08:40.042Z,1024.47
2019-04-11T11:09:40.016Z,1024.46
2019-04-11T11:10:39.991Z,1024.46
2019-04-11T11:11:40.852Z,1024.51
2019-04-11T11:12:39.942Z,1024.50
2019-04-11T11:13:40.767Z,1024.52
2019-04-11T11:14:39.888Z,1024.53
2019-04-11T11:15:39.959Z,1024.50
2019-04-11T11:16:42.860Z,1024.47
2019-04-11T11:18:00.956Z,1024.47
2019-04-11T11:19:07.542Z,1024.46
2019-04-11T11:19:50.114Z,1024.50
2019-04-11T11:20:47.690Z,1024.50
2019-04-11T11:21:39.946Z,1024.51
2019-04-11T11:22:41.511Z,1024.50
2019-04-11T11:23:40.738Z,1024.51
2019-04-11T11:24:40.613Z,1024.56
2019-04-11T11:25:44.444Z,1024.59
2019-04-11T11:26:39.575Z,1024.59
2019-04-11T11:27:39.546Z,1024.60
2019-04-11T11:28:39.528Z,1024.62
2019-04-11T11:29:40.394Z,1024.63
2019-04-11T11:30:39.915Z,1024.65
2019-04-11T11:31:40.815Z,1024.59
2019-04-11T11:32:39.419Z,1024.64
2019-04-11T11:33:40.540Z,1024.60
2019-04-11T11:34:39.381Z,1024.61
2019-04-11T11:35:41.021Z,1024.63
2019-04-11T11:36:39.600Z,1024.70
2019-04-11T11:37:39.689Z,1024.65
2019-04-11T11:38:39.261Z,1024.67
2019-04-11T11:39:39.482Z,1024.69
2019-04-11T11:40:41.642Z,1024.69
2019-04-11T11:41:39.184Z,1024.68
2019-04-11T11:42:39.158Z,1024.65
2019-04-11T11:43:39.211Z,1024.69
2019-04-11T11:44:39.208Z,1024.66
2019-04-11T11:45:39.082Z,1024.68
2019-04-11T11:46:39.057Z,1024.67
2019-04-11T11:47:41.215Z,1024.68
2019-04-11T11:48:39.664Z,1024.68
2019-04-11T11:49:48.984Z,1024.66
2019-04-11T11:50:39.214Z,1024.67
2019-04-11T11:51:38.927Z,1024.68
2019-04-11T11:52:39.373Z,1024.64
2019-04-11T11:53:38.875Z,1024.66
2019-04-11T11:54:39.796Z,1024.63
2019-04-11T11:55:38.825Z,1024.64
2019-04-11T11:56:38.798Z,1024.61
2019-04-11T11:57:39.228Z,1024.65
2019-04-11T11:58:38.747Z,1024.61
2019-04-11T11:59:38.721Z,1024.66
2019-04-11T12:00:38.933Z,1024.65
2019-04-11T12:01:43.040Z,1024.65
2019-04-11T12:02:39.003Z,1024.64
2019-04-11T12:03:40.494Z,1024.67
2019-04-11T12:04:39.332Z,1024.62
2019-04-11T12:05:39.119Z,1024.62
2019-04-11T12:06:38.862Z,1024.59
2019-04-11T12:07:39.367Z,1024.68
2019-04-11T12:08:39.185Z,1024.70